Time;durP1;ratioP1;P1;durP2;ratioP2;P2;SDS_P1;SDS_P2;PMS_P1;PMS_P2;Temp;Humidity;BMP_temperature;BMP_pressure;BME280_temperature;BME280_humidity;BME280_pressure;Samples;Min_cycle;Max_cycle;Signal;HPM_P1;HPM_P2
2023/07/15 00:00:47;;;;;;;188.35;169.60;;;;;;;;;;5036495;28;20091;-57
2023/07/15 00:03:14;;;;;;;39.30;26.92;;;;;;;;;;5038907;28;20017;-59
2023/07/15 00:05:39;;;;;;;307.40;278.42;;;;;;;;;;5038519;28;20060;-57
2023/07/15 00:08:05;;;;;;;426.90;388.13;;;;;;;;;;5038523;28;20125;-59
2023/07/15 00:10:31;;;;;;;309.92;281.80;;;;;;;;;;5019072;28;20329;-57
2023/07/15 00:12:56;;;;;;;437.80;400.67;;;;;;;;;;5036921;28;20025;-59
2023/07/15 00:15:22;;;;;;;450.98;411.40;;;;;;;;;;5038802;28;20052;-58
2023/07/15 00:17:47;;;;;;;318.40;287.55;;;;;;;;;;5017458;28;20107;-59
2023/07/15 00:20:14;;;;;;;296.73;270.98;;;;;;;;;;5038025;28;20021;-58
2023/07/15 00:22:41;;;;;;;83.20;68.53;;;;;;;;;;5037982;28;20013;-59
2023/07/15 00:25:09;;;;;;;238.35;217.18;;;;;;;;;;5036066;28;20029;-59
2023/07/15 00:27:34;;;;;;;68.72;51.92;;;;;;;;;;5037072;28;20378;-59
2023/07/15 00:30:00;;;;;;;316.37;285.47;;;;;;;;;;5034655;28;20138;-60
2023/07/15 00:32:25;;;;;;;401.60;365.08;;;;;;;;;;5036975;28;20178;-59
2023/07/15 00:34:50;;;;;;;389.02;354.55;;;;;;;;;;5036232;28;20037;-58
2023/07/15 00:37:16;;;;;;;405.03;369.00;;;;;;;;;;5035784;28;20029;-55
2023/07/15 00:39:41;;;;;;;380.00;347.63;;;;;;;;;;5037008;28;20247;-57
2023/07/15 00:42:09;;;;;;;422.23;386.75;;;;;;;;;;5035384;28;20037;-57
2023/07/15 00:44:35;;;;;;;70.70;57.42;;;;;;;;;;5015337;28;20091;-58
2023/07/15 00:47:00;;;;;;;396.43;361.27;;;;;;;;;;5034619;28;20598;-58
2023/07/15 00:49:26;;;;;;;421.40;384.27;;;;;;;;;;5037652;28;20391;-58
2023/07/15 00:51:55;;;;;;;354.92;321.52;;;;;;;;;;5035811;28;20925;-57
2023/07/15 00:54:21;;;;;;;467.20;429.38;;;;;;;;;;5037654;28;20028;-56
2023/07/15 00:56:46;;;;;;;454.55;416.02;;;;;;;;;;5017728;28;20036;-55
2023/07/15 00:59:14;;;;;;;456.80;418.10;;;;;;;;;;5035991;28;20055;-58
2023/07/15 01:01:40;;;;;;;393.23;358.70;;;;;;;;;;5036701;28;20060;-57
2023/07/15 01:04:05;;;;;;;313.83;283.80;;;;;;;;;;5035730;28;20437;-56
2023/07/15 01:06:33;;;;;;;416.02;378.17;;;;;;;;;;5036130;28;20087;-57
2023/07/15 01:08:59;;;;;;;50.22;35.45;;;;;;;;;;5036270;28;20127;-57
2023/07/15 01:11:25;;;;;;;396.35;362.48;;;;;;;;;;5035929;28;20579;-57
2023/07/15 01:13:50;;;;;;;383.50;349.60;;;;;;;;;;5034972;28;20509;-57
2023/07/15 01:16:16;;;;;;;206.97;187.20;;;;;;;;;;5036443;28;20036;-58
2023/07/15 01:18:42;;;;;;;106.63;96.50;;;;;;;;;;5036982;28;20046;-57
2023/07/15 01:21:08;;;;;;;292.92;265.20;;;;;;;;;;5034893;28;20064;-57
2023/07/15 01:23:33;;;;;;;426.88;390.98;;;;;;;;;;5036130;28;20119;-58
2023/07/15 01:25:59;;;;;;;453.33;413.58;;;;;;;;;;5017091;28;20041;-57
2023/07/15 01:28:24;;;;;;;306.30;280.45;;;;;;;;;;5037501;28;20020;-57
2023/07/15 01:30:49;;;;;;;311.23;283.73;;;;;;;;;;5035041;28;20041;-55
2023/07/15 01:33:18;;;;;;;28.60;19.77;;;;;;;;;;5038193;28;20267;-57
2023/07/15 01:35:46;;;;;;;333.05;303.83;;;;;;;;;;5035865;28;20593;-57
2023/07/15 01:38:11;;;;;;;394.98;359.75;;;;;;;;;;5035584;28;20410;-57
2023/07/15 01:40:36;;;;;;;192.07;175.97;;;;;;;;;;5036686;28;20038;-57
2023/07/15 01:43:04;;;;;;;81.77;64.90;;;;;;;;;;5035586;28;20263;-58
2023/07/15 01:45:29;;;;;;;37.30;31.30;;;;;;;;;;5018794;28;20691;-58
2023/07/15 01:47:55;;;;;;;171.98;154.35;;;;;;;;;;5034870;28;20028;-57
2023/07/15 01:50:20;;;;;;;23.50;17.35;;;;;;;;;;5036647;28;20501;-57
2023/07/15 01:52:46;;;;;;;12.13;6.73;;;;;;;;;;5037983;28;20024;-57
2023/07/15 01:55:11;;;;;;;175.70;158.70;;;;;;;;;;5035770;28;20013;-57
2023/07/15 01:57:36;;;;;;;15.50;7.93;;;;;;;;;;5036352;28;20006;-56
2023/07/15 02:00:05;;;;;;;319.33;291.73;;;;;;;;;;5035853;28;20278;-58
2023/07/15 02:02:30;;;;;;;300.40;273.83;;;;;;;;;;5039242;28;20068;-57
2023/07/15 02:04:55;;;;;;;22.98;9.48;;;;;;;;;;5039217;28;20151;-56
2023/07/15 02:07:22;;;;;;;175.48;157.60;;;;;;;;;;5038733;28;20391;-57
2023/07/15 02:09:48;;;;;;;93.25;84.13;;;;;;;;;;5039192;28;20024;-56
2023/07/15 02:12:13;;;;;;;189.23;171.85;;;;;;;;;;5038492;28;20025;-56
2023/07/15 02:14:38;;;;;;;65.32;58.28;;;;;;;;;;5039421;28;20025;-57
2023/07/15 02:17:04;;;;;;;20.83;8.47;;;;;;;;;;5036591;28;20391;-56
2023/07/15 02:19:32;;;;;;;108.72;98.95;;;;;;;;;;5039626;28;20271;-57
2023/07/15 02:21:57;;;;;;;243.32;220.57;;;;;;;;;;5038609;28;20033;-58
2023/07/15 02:24:22;;;;;;;12.23;5.28;;;;;;;;;;5040640;28;20055;-57
2023/07/15 02:26:48;;;;;;;185.23;168.00;;;;;;;;;;5038386;28;20606;-57
2023/07/15 02:29:13;;;;;;;162.05;147.05;;;;;;;;;;5037618;28;20256;-57
2023/07/15 02:31:38;;;;;;;168.68;153.82;;;;;;;;;;5038770;28;20127;-58
2023/07/15 02:34:04;;;;;;;207.43;188.87;;;;;;;;;;5039058;28;20016;-58
2023/07/15 02:36:29;;;;;;;103.22;94.78;;;;;;;;;;5038914;28;20773;-58
2023/07/15 02:38:55;;;;;;;70.75;61.92;;;;;;;;;;5038565;28;20091;-57
2023/07/15 02:41:20;;;;;;;13.77;5.63;;;;;;;;;;5038297;28;20413;-58
2023/07/15 02:43:45;;;;;;;142.85;128.50;;;;;;;;;;5040300;28;20027;-58
2023/07/15 02:46:10;;;;;;;22.30;9.27;;;;;;;;;;5038372;28;20163;-58
2023/07/15 02:48:35;;;;;;;42.63;34.27;;;;;;;;;;5039031;28;20348;-58
2023/07/15 02:51:01;;;;;;;163.82;146.90;;;;;;;;;;5014497;28;20264;-58
2023/07/15 02:53:27;;;;;;;11.15;4.95;;;;;;;;;;5038964;28;20383;-57
2023/07/15 02:55:52;;;;;;;15.65;7.45;;;;;;;;;;5039670;28;20044;-59
2023/07/15 02:58:18;;;;;;;18.77;13.68;;;;;;;;;;5039980;28;20021;-58
2023/07/15 03:00:44;;;;;;;83.28;75.28;;;;;;;;;;5039644;28;20036;-57
2023/07/15 03:03:10;;;;;;;21.35;6.75;;;;;;;;;;5038270;28;20025;-58
2023/07/15 03:05:36;;;;;;;103.07;93.70;;;;;;;;;;5038048;28;20033;-56
2023/07/15 03:08:01;;;;;;;31.90;24.23;;;;;;;;;;5038279;28;20100;-57
2023/07/15 03:10:26;;;;;;;38.40;28.77;;;;;;;;;;5039060;28;20036;-56
2023/07/15 03:12:52;;;;;;;142.80;129.20;;;;;;;;;;5040352;28;20120;-57
2023/07/15 03:15:17;;;;;;;13.38;6.40;;;;;;;;;;5022684;28;20016;-57
2023/07/15 03:17:42;;;;;;;270.45;245.90;;;;;;;;;;5039553;28;20752;-58
2023/07/15 03:20:14;;;;;;;119.53;109.05;;;;;;;;;;5037627;28;20047;-57
2023/07/15 03:22:40;;;;;;;50.67;44.90;;;;;;;;;;5039791;28;20013;-58
2023/07/15 03:25:06;;;;;;;102.88;93.72;;;;;;;;;;5037147;28;20084;-58
2023/07/15 03:27:31;;;;;;;63.95;57.40;;;;;;;;;;5038273;28;20071;-58
2023/07/15 03:29:56;;;;;;;137.63;125.70;;;;;;;;;;5036973;28;20092;-56
2023/07/15 03:32:23;;;;;;;30.97;25.10;;;;;;;;;;5038803;28;20254;-58
2023/07/15 03:34:48;;;;;;;85.57;75.38;;;;;;;;;;5038744;28;20252;-58
2023/07/15 03:37:14;;;;;;;185.02;168.80;;;;;;;;;;5037329;28;20511;-58
2023/07/15 03:39:39;;;;;;;11.45;5.10;;;;;;;;;;5038672;28;20021;-58
2023/07/15 03:42:04;;;;;;;16.90;5.97;;;;;;;;;;5037046;28;20036;-58
2023/07/15 03:44:30;;;;;;;15.23;5.50;;;;;;;;;;5038244;28;20217;-59
2023/07/15 03:46:57;;;;;;;12.17;5.60;;;;;;;;;;5037066;28;20278;-59
2023/07/15 03:49:22;;;;;;;46.67;38.97;;;;;;;;;;5038106;28;21243;-58
2023/07/15 03:51:48;;;;;;;62.70;55.78;;;;;;;;;;5018254;28;20033;-58
2023/07/15 03:54:13;;;;;;;49.23;32.70;;;;;;;;;;5038051;28;20059;-58
2023/07/15 03:56:38;;;;;;;11.90;4.90;;;;;;;;;;5037827;28;20293;-59
2023/07/15 03:59:05;;;;;;;16.80;6.13;;;;;;;;;;5018794;28;20263;-59
2023/07/15 04:01:31;;;;;;;67.93;59.08;;;;;;;;;;5038497;28;20537;-59
2023/07/15 04:03:56;;;;;;;93.05;84.75;;;;;;;;;;5038790;28;20028;-57
2023/07/15 04:06:21;;;;;;;132.93;120.47;;;;;;;;;;5036335;28;20152;-59
2023/07/15 04:08:46;;;;;;;10.57;5.03;;;;;;;;;;5038526;28;20346;-59
2023/07/15 04:11:12;;;;;;;109.35;99.03;;;;;;;;;;5035195;28;20402;-59
2023/07/15 04:13:37;;;;;;;121.90;110.97;;;;;;;;;;5036939;28;20017;-59
2023/07/15 04:16:02;;;;;;;20.48;6.85;;;;;;;;;;5036045;28;20267;-59
2023/07/15 04:18:28;;;;;;;11.70;4.78;;;;;;;;;;5038819;28;20075;-58
2023/07/15 04:20:53;;;;;;;55.45;49.95;;;;;;;;;;5037189;28;20036;-59
2023/07/15 04:23:18;;;;;;;8.80;4.33;;;;;;;;;;5036118;28;20464;-58
2023/07/15 04:25:45;;;;;;;22.10;11.67;;;;;;;;;;5036833;28;20919;-59
2023/07/15 04:28:11;;;;;;;71.90;63.30;;;;;;;;;;5023423;28;20256;-58
2023/07/15 04:30:36;;;;;;;69.20;61.88;;;;;;;;;;5037883;28;20252;-59
2023/07/15 04:33:01;;;;;;;123.73;113.63;;;;;;;;;;5036595;28;20520;-58
2023/07/15 04:35:26;;;;;;;341.90;312.30;;;;;;;;;;5037361;28;20557;-58
2023/07/15 04:37:52;;;;;;;327.67;300.20;;;;;;;;;;5036507;28;20031;-59
2023/07/15 04:40:17;;;;;;;54.80;30.73;;;;;;;;;;5022302;28;20342;-60
2023/07/15 04:42:42;;;;;;;89.30;78.32;;;;;;;;;;5037665;28;20302;-57
2023/07/15 04:45:08;;;;;;;299.43;274.03;;;;;;;;;;5036650;28;20036;-58
2023/07/15 04:47:34;;;;;;;303.75;275.83;;;;;;;;;;5037201;28;20683;-57
2023/07/15 04:49:59;;;;;;;229.30;209.30;;;;;;;;;;5038275;28;20032;-57
2023/07/15 04:52:24;;;;;;;241.80;219.00;;;;;;;;;;5035849;28;20037;-59
2023/07/15 04:54:49;;;;;;;302.98;276.40;;;;;;;;;;5017491;28;20948;-58
2023/07/15 04:57:16;;;;;;;292.50;265.37;;;;;;;;;;5034324;28;20934;-57
2023/07/15 04:59:42;;;;;;;442.35;408.00;;;;;;;;;;5036657;28;20276;-57
2023/07/15 05:02:07;;;;;;;342.97;313.00;;;;;;;;;;5035855;28;20036;-58
2023/07/15 05:04:33;;;;;;;450.53;414.83;;;;;;;;;;5035868;28;20256;-59
2023/07/15 05:06:58;;;;;;;275.88;250.20;;;;;;;;;;5035055;28;20033;-58
2023/07/15 05:09:24;;;;;;;354.67;325.00;;;;;;;;;;5036008;28;20023;-59
2023/07/15 05:11:49;;;;;;;522.78;483.80;;;;;;;;;;5035375;28;20276;-59
2023/07/15 05:14:14;;;;;;;477.55;441.42;;;;;;;;;;5035126;28;20028;-58
2023/07/15 05:16:42;;;;;;;527.50;487.30;;;;;;;;;;5035890;28;20025;-58
2023/07/15 05:19:08;;;;;;;480.00;442.20;;;;;;;;;;5036411;28;20017;-59
2023/07/15 05:21:33;;;;;;;323.45;297.73;;;;;;;;;;5035999;28;20028;-59
2023/07/15 05:23:58;;;;;;;273.73;252.90;;;;;;;;;;5037434;28;20108;-58
2023/07/15 05:26:23;;;;;;;409.87;377.57;;;;;;;;;;5035573;28;20704;-58
2023/07/15 05:28:49;;;;;;;238.73;220.47;;;;;;;;;;5038563;28;20431;-60
2023/07/15 05:31:14;;;;;;;238.63;220.00;;;;;;;;;;5035951;28;20316;-59
2023/07/15 05:33:39;;;;;;;278.50;255.97;;;;;;;;;;5037498;28;20072;-60
2023/07/15 05:36:04;;;;;;;221.05;204.02;;;;;;;;;;5034007;28;20322;-58
2023/07/15 05:38:30;;;;;;;230.30;212.90;;;;;;;;;;5037025;28;20128;-59
2023/07/15 05:40:55;;;;;;;211.80;195.80;;;;;;;;;;5036720;28;20045;-58
2023/07/15 05:43:21;;;;;;;231.82;214.25;;;;;;;;;;5036578;28;20299;-58
2023/07/15 05:45:46;;;;;;;206.85;190.63;;;;;;;;;;5036080;28;20047;-58
2023/07/15 05:48:11;;;;;;;229.38;212.50;;;;;;;;;;5033771;28;20040;-58
2023/07/15 05:50:37;;;;;;;339.13;311.83;;;;;;;;;;5035481;28;20045;-59
2023/07/15 05:53:05;;;;;;;247.43;226.52;;;;;;;;;;5037256;28;20267;-57
2023/07/15 05:55:34;;;;;;;285.52;261.15;;;;;;;;;;5035394;28;20148;-59
2023/07/15 05:58:01;;;;;;;295.25;270.40;;;;;;;;;;5035134;28;20064;-59
2023/07/15 06:00:26;;;;;;;296.48;270.00;;;;;;;;;;5032989;28;20037;-58
2023/07/15 06:02:51;;;;;;;423.33;384.58;;;;;;;;;;5014590;28;20036;-58
2023/07/15 06:05:17;;;;;;;338.73;309.10;;;;;;;;;;5033996;28;20560;-60
2023/07/15 06:07:42;;;;;;;438.20;397.13;;;;;;;;;;5034888;28;20009;-60
2023/07/15 06:10:08;;;;;;;439.10;402.33;;;;;;;;;;5033775;28;20025;-59
2023/07/15 06:12:33;;;;;;;468.23;425.50;;;;;;;;;;5035059;28;20056;-58
2023/07/15 06:14:58;;;;;;;529.42;482.50;;;;;;;;;;5036296;28;20033;-59
2023/07/15 06:17:24;;;;;;;382.07;347.67;;;;;;;;;;5033006;28;20033;-59
2023/07/15 06:19:49;;;;;;;379.87;350.27;;;;;;;;;;5035349;28;20330;-59
2023/07/15 06:22:14;;;;;;;727.63;647.87;;;;;;;;;;5034508;28;20270;-59
2023/07/15 06:24:39;;;;;;;376.97;344.27;;;;;;;;;;5036043;28;20282;-57
2023/07/15 06:27:05;;;;;;;514.33;471.07;;;;;;;;;;5034997;28;20029;-58
2023/07/15 06:29:31;;;;;;;411.08;373.77;;;;;;;;;;5034553;28;20017;-59
2023/07/15 06:31:56;;;;;;;584.13;503.27;;;;;;;;;;5035638;28;20032;-59
2023/07/15 06:34:21;;;;;;;371.17;338.00;;;;;;;;;;5035593;28;20025;-58
2023/07/15 06:36:46;;;;;;;321.80;285.98;;;;;;;;;;5033849;28;20049;-59
2023/07/15 06:39:12;;;;;;;351.23;317.67;;;;;;;;;;5032748;28;20016;-58
2023/07/15 06:41:37;;;;;;;440.70;403.40;;;;;;;;;;5034445;28;20025;-57
2023/07/15 06:44:03;;;;;;;525.83;474.47;;;;;;;;;;5017678;28;20017;-57
2023/07/15 06:46:28;;;;;;;479.23;422.33;;;;;;;;;;5034221;28;20048;-57
2023/07/15 06:48:55;;;;;;;514.40;472.50;;;;;;;;;;5039155;28;20032;-57
2023/07/15 06:51:20;;;;;;;444.42;405.20;;;;;;;;;;5023331;28;20037;-57
2023/07/15 06:53:46;;;;;;;505.52;456.52;;;;;;;;;;5039734;28;20040;-57
2023/07/15 06:56:11;;;;;;;448.00;408.77;;;;;;;;;;5038469;28;20041;-57
2023/07/15 06:58:36;;;;;;;552.27;500.63;;;;;;;;;;5039549;28;20543;-57
2023/07/15 07:01:02;;;;;;;435.33;396.97;;;;;;;;;;5039191;28;20036;-59
2023/07/15 07:03:27;;;;;;;354.43;318.87;;;;;;;;;;5039165;28;20111;-59
2023/07/15 07:05:53;;;;;;;540.30;491.98;;;;;;;;;;5038069;28;20061;-59
2023/07/15 07:08:21;;;;;;;551.97;496.70;;;;;;;;;;5038100;28;20502;-57
2023/07/15 07:10:46;;;;;;;418.10;369.45;;;;;;;;;;5039346;28;20122;-58
2023/07/15 07:13:11;;;;;;;431.83;392.10;;;;;;;;;;5038347;28;20496;-57
2023/07/15 07:15:37;;;;;;;464.53;425.13;;;;;;;;;;5039924;28;20052;-57
2023/07/15 07:18:02;;;;;;;694.73;626.53;;;;;;;;;;5038838;28;20025;-57
2023/07/15 07:20:27;;;;;;;649.37;581.63;;;;;;;;;;5037046;28;20530;-58
2023/07/15 07:22:52;;;;;;;403.80;342.33;;;;;;;;;;5039131;28;20114;-58
2023/07/15 07:25:18;;;;;;;443.90;403.73;;;;;;;;;;5037828;28;20311;-58
2023/07/15 07:27:43;;;;;;;247.77;220.87;;;;;;;;;;5038841;28;20013;-59
2023/07/15 07:30:08;;;;;;;433.23;392.70;;;;;;;;;;5038053;28;20078;-58
2023/07/15 07:32:34;;;;;;;312.42;165.85;;;;;;;;;;5036272;28;20013;-59
2023/07/15 07:34:59;;;;;;;474.33;393.67;;;;;;;;;;5019112;28;20032;-58
2023/07/15 07:37:25;;;;;;;434.03;340.87;;;;;;;;;;5036255;28;20080;-59
2023/07/15 07:39:50;;;;;;;238.67;215.30;;;;;;;;;;5038121;28;20321;-57
2023/07/15 07:42:15;;;;;;;425.63;380.43;;;;;;;;;;5018321;28;20324;-59
2023/07/15 07:44:40;;;;;;;485.77;369.63;;;;;;;;;;5040367;28;20024;-59
2023/07/15 07:47:05;;;;;;;654.10;539.73;;;;;;;;;;5037586;28;20037;-59
2023/07/15 07:49:31;;;;;;;616.33;291.90;;;;;;;;;;5019184;28;21660;-58
2023/07/15 07:51:56;;;;;;;499.25;444.85;;;;;;;;;;5038149;28;20032;-58
2023/07/15 07:54:21;;;;;;;416.50;232.50;;;;;;;;;;5037011;28;20028;-58
2023/07/15 07:56:46;;;;;;;208.63;105.23;;;;;;;;;;5003486;28;20033;-58
2023/07/15 07:59:12;;;;;;;287.90;175.20;;;;;;;;;;5037709;28;20092;-57
2023/07/15 08:01:37;;;;;;;320.35;144.00;;;;;;;;;;5036962;28;20065;-59
2023/07/15 08:04:03;;;;;;;642.30;318.13;;;;;;;;;;5035618;28;20017;-58
2023/07/15 08:06:28;;;;;;;234.57;151.05;;;;;;;;;;5035566;28;20373;-59
2023/07/15 08:08:54;;;;;;;363.70;298.17;;;;;;;;;;5039994;28;20504;-56
2023/07/15 08:11:19;;;;;;;278.15;117.15;;;;;;;;;;5034903;28;20329;-58
2023/07/15 08:13:44;;;;;;;206.57;104.43;;;;;;;;;;5037790;28;20078;-58
2023/07/15 08:16:28;;;;;;;732.80;370.93;;;;;;;;;;5036644;28;20067;-58
2023/07/15 08:18:55;;;;;;;449.27;297.33;;;;;;;;;;5036445;28;20590;-58
2023/07/15 08:21:20;;;;;;;576.92;290.58;;;;;;;;;;5018708;28;20120;-57
2023/07/15 08:23:45;;;;;;;590.50;532.33;;;;;;;;;;5038158;28;20029;-59
2023/07/15 08:26:11;;;;;;;317.37;201.60;;;;;;;;;;5036030;28;20033;-58
2023/07/15 08:28:36;;;;;;;399.43;249.87;;;;;;;;;;5036679;28;20029;-57
2023/07/15 08:31:01;;;;;;;414.33;260.87;;;;;;;;;;5035912;28;20064;-58
2023/07/15 08:33:26;;;;;;;679.93;606.00;;;;;;;;;;5037231;28;20037;-58
2023/07/15 08:35:52;;;;;;;259.77;135.10;;;;;;;;;;5036877;28;20364;-57
2023/07/15 08:38:17;;;;;;;872.67;561.57;;;;;;;;;;5036321;28;20070;-58
2023/07/15 08:40:43;;;;;;;482.43;364.80;;;;;;;;;;5037630;28;20071;-58
2023/07/15 08:43:09;;;;;;;630.08;566.63;;;;;;;;;;5036936;28;20017;-59
2023/07/15 08:45:35;;;;;;;539.85;475.33;;;;;;;;;;5035535;28;20103;-58
2023/07/15 08:48:01;;;;;;;444.15;336.08;;;;;;;;;;5019929;28;20223;-58
2023/07/15 08:50:27;;;;;;;649.30;420.95;;;;;;;;;;5036156;28;20444;-59
2023/07/15 08:52:52;;;;;;;618.72;554.53;;;;;;;;;;5038483;28;20104;-57
2023/07/15 08:55:18;;;;;;;720.33;365.30;;;;;;;;;;5034782;28;20017;-57
2023/07/15 08:57:44;;;;;;;251.60;122.38;;;;;;;;;;5037123;28;20275;-57
2023/07/15 09:00:10;;;;;;;607.75;543.78;;;;;;;;;;5035667;28;20048;-58
2023/07/15 09:02:39;;;;;;;675.45;364.33;;;;;;;;;;5035335;28;20139;-58
2023/07/15 09:05:08;;;;;;;347.75;273.17;;;;;;;;;;5035476;28;20021;-58
2023/07/15 09:07:42;;;;;;;313.48;194.23;;;;;;;;;;5034027;28;20044;-59
2023/07/15 09:10:11;;;;;;;641.22;364.02;;;;;;;;;;5035705;28;20557;-58
2023/07/15 09:12:36;;;;;;;268.20;189.18;;;;;;;;;;5016852;28;20040;-58
2023/07/15 09:15:01;;;;;;;495.87;342.20;;;;;;;;;;5037272;28;20025;-58
2023/07/15 09:17:26;;;;;;;279.43;142.40;;;;;;;;;;5035101;28;20032;-57
2023/07/15 09:19:52;;;;;;;370.48;179.57;;;;;;;;;;5036452;28;20036;-58
2023/07/15 09:22:18;;;;;;;271.00;153.83;;;;;;;;;;5037346;28;20494;-58
2023/07/15 09:24:43;;;;;;;120.03;61.80;;;;;;;;;;5036339;28;20620;-58
2023/07/15 09:27:08;;;;;;;164.30;99.83;;;;;;;;;;5034038;28;20025;-58
2023/07/15 09:29:34;;;;;;;605.43;507.13;;;;;;;;;;5034403;28;20263;-59
2023/07/15 09:31:59;;;;;;;432.33;242.07;;;;;;;;;;5036011;28;20028;-59
2023/07/15 09:34:25;;;;;;;598.97;448.75;;;;;;;;;;5034558;28;20036;-59
2023/07/15 09:36:51;;;;;;;318.58;175.50;;;;;;;;;;5034723;28;20025;-59
2023/07/15 09:39:19;;;;;;;82.22;47.50;;;;;;;;;;5035841;28;20092;-58
2023/07/15 09:41:57;;;;;;;732.75;365.00;;;;;;;;;;5034969;28;20026;-58
2023/07/15 09:44:32;;;;;;;355.20;241.43;;;;;;;;;;5034957;28;20024;-58
2023/07/15 09:46:57;;;;;;;673.50;600.85;;;;;;;;;;5035940;28;20029;-60
2023/07/15 09:49:22;;;;;;;579.87;451.37;;;;;;;;;;5034197;28;20017;-61
2023/07/15 09:51:48;;;;;;;668.80;391.07;;;;;;;;;;5035662;28;20279;-57
2023/07/15 09:54:13;;;;;;;595.80;404.90;;;;;;;;;;5035997;28;20076;-59
2023/07/15 09:56:42;;;;;;;570.30;432.63;;;;;;;;;;5032782;28;21282;-57
2023/07/15 09:59:16;;;;;;;254.98;213.35;;;;;;;;;;5036881;28;20028;-59
2023/07/15 10:01:46;;;;;;;344.98;253.10;;;;;;;;;;5032999;28;20088;-59
2023/07/15 10:04:22;;;;;;;619.35;519.15;;;;;;;;;;5035752;28;20075;-59
2023/07/15 10:06:48;;;;;;;665.38;593.10;;;;;;;;;;5034174;28;20056;-58
2023/07/15 10:09:14;;;;;;;777.67;436.92;;;;;;;;;;5010555;28;20048;-59
2023/07/15 10:11:39;;;;;;;594.83;440.08;;;;;;;;;;5035279;28;20036;-59
2023/07/15 10:14:05;;;;;;;1850.20;625.38;;;;;;;;;;5037079;28;20021;-57
2023/07/15 10:16:33;;;;;;;1032.45;507.58;;;;;;;;;;5034037;28;20132;-60
2023/07/15 10:19:01;;;;;;;974.17;500.70;;;;;;;;;;5027667;28;20456;-59
2023/07/15 10:21:26;;;;;;;465.55;306.67;;;;;;;;;;5032927;28;20029;-61
2023/07/15 10:24:05;;;;;;;529.85;415.67;;;;;;;;;;5036645;28;20021;-59
2023/07/15 10:26:30;;;;;;;318.73;229.65;;;;;;;;;;5035144;28;20045;-60
2023/07/15 10:28:58;;;;;;;402.10;192.73;;;;;;;;;;5038165;28;20024;-59
2023/07/15 10:31:24;;;;;;;352.42;257.55;;;;;;;;;;5034722;28;20064;-60
2023/07/15 10:33:54;;;;;;;496.77;422.20;;;;;;;;;;5036457;28;20115;-59
2023/07/15 10:36:36;;;;;;;109.80;67.72;;;;;;;;;;5035563;28;20040;-59
2023/07/15 10:39:22;;;;;;;639.50;573.58;;;;;;;;;;5036489;28;20136;-59
2023/07/15 10:41:52;;;;;;;477.73;370.88;;;;;;;;;;5034780;28;20036;-60
2023/07/15 10:44:18;;;;;;;671.88;601.00;;;;;;;;;;5036577;28;20901;-60
2023/07/15 10:46:47;;;;;;;686.65;510.10;;;;;;;;;;5017370;28;20124;-60
2023/07/15 10:49:13;;;;;;;588.25;511.13;;;;;;;;;;5035484;28;20083;-61
2023/07/15 10:51:39;;;;;;;483.30;386.30;;;;;;;;;;5035025;28;20461;-58
2023/07/15 10:54:04;;;;;;;141.80;85.07;;;;;;;;;;5037442;28;20056;-59
2023/07/15 10:56:30;;;;;;;139.37;88.17;;;;;;;;;;5035106;28;20039;-58
2023/07/15 10:58:56;;;;;;;758.78;367.70;;;;;;;;;;5037232;28;20029;-60
2023/07/15 11:01:22;;;;;;;580.97;253.43;;;;;;;;;;5037149;28;20048;-62
2023/07/15 11:03:47;;;;;;;735.97;467.33;;;;;;;;;;5037982;28;20021;-58
2023/07/15 11:06:12;;;;;;;425.87;355.50;;;;;;;;;;5038998;28;20092;-58
2023/07/15 11:08:39;;;;;;;873.88;537.83;;;;;;;;;;5038140;28;20579;-58
2023/07/15 11:11:04;;;;;;;433.52;353.60;;;;;;;;;;5037923;28;20040;-59
2023/07/15 11:13:30;;;;;;;515.53;432.98;;;;;;;;;;5038418;28;20070;-60
2023/07/15 11:15:56;;;;;;;728.28;603.67;;;;;;;;;;5037653;28;20033;-58
2023/07/15 11:18:22;;;;;;;640.53;529.35;;;;;;;;;;5038899;28;20020;-59
2023/07/15 11:20:49;;;;;;;752.17;526.47;;;;;;;;;;5037560;28;20091;-60
2023/07/15 11:23:14;;;;;;;83.75;66.95;;;;;;;;;;5020875;28;20024;-60
2023/07/15 11:25:40;;;;;;;1003.70;539.60;;;;;;;;;;5037670;28;20033;-60
2023/07/15 11:28:06;;;;;;;719.75;440.23;;;;;;;;;;5039793;28;20036;-59
2023/07/15 11:30:45;;;;;;;833.92;576.75;;;;;;;;;;5036231;28;20029;-58
2023/07/15 11:33:10;;;;;;;634.55;481.95;;;;;;;;;;5038947;28;20086;-59
2023/07/15 11:35:37;;;;;;;449.52;355.70;;;;;;;;;;5036571;28;20029;-59
2023/07/15 11:38:15;;;;;;;518.55;467.77;;;;;;;;;;5038325;28;20546;-59
2023/07/15 11:40:53;;;;;;;449.35;265.42;;;;;;;;;;5036549;28;20086;-59
2023/07/15 11:43:19;;;;;;;569.90;503.02;;;;;;;;;;5039294;28;20121;-58
2023/07/15 11:45:44;;;;;;;484.85;259.35;;;;;;;;;;5038776;28;20052;-59
2023/07/15 11:48:10;;;;;;;422.08;299.88;;;;;;;;;;5039570;28;20354;-59
2023/07/15 11:50:35;;;;;;;564.20;396.05;;;;;;;;;;5037347;28;20498;-59
2023/07/15 11:53:01;;;;;;;431.17;316.92;;;;;;;;;;5039677;28;20510;-59
2023/07/15 11:55:26;;;;;;;422.88;338.65;;;;;;;;;;5037836;28;20231;-59
2023/07/15 11:57:52;;;;;;;496.13;445.27;;;;;;;;;;5038297;28;20091;-58
2023/07/15 12:00:33;;;;;;;538.00;484.05;;;;;;;;;;5039157;28;20120;-60
2023/07/15 12:03:05;;;;;;;400.90;247.93;;;;;;;;;;5038605;28;20356;-58
2023/07/15 12:05:31;;;;;;;655.42;420.33;;;;;;;;;;5036222;28;20501;-59
2023/07/15 12:07:56;;;;;;;760.57;541.67;;;;;;;;;;5037760;28;20395;-58
2023/07/15 12:10:21;;;;;;;399.10;250.48;;;;;;;;;;5037232;28;20367;-58
2023/07/15 12:12:47;;;;;;;541.03;486.90;;;;;;;;;;5037657;28;20025;-59
2023/07/15 12:15:14;;;;;;;536.63;481.37;;;;;;;;;;5038203;28;20545;-59
2023/07/15 12:17:39;;;;;;;438.25;381.15;;;;;;;;;;5036854;28;20021;-59
2023/07/15 12:20:06;;;;;;;176.93;153.70;;;;;;;;;;5038498;28;20556;-59
2023/07/15 12:22:31;;;;;;;674.05;358.40;;;;;;;;;;5036374;28;20016;-59
2023/07/15 12:24:56;;;;;;;582.08;440.10;;;;;;;;;;5039088;28;20036;-59
2023/07/15 12:27:21;;;;;;;637.20;506.33;;;;;;;;;;5038825;28;20029;-59
2023/07/15 12:29:47;;;;;;;727.20;389.60;;;;;;;;;;5022915;28;20098;-59
2023/07/15 12:32:12;;;;;;;518.67;458.20;;;;;;;;;;5037576;28;20044;-59
2023/07/15 12:34:37;;;;;;;735.13;524.63;;;;;;;;;;5037256;28;20081;-58
2023/07/15 12:37:03;;;;;;;359.10;320.50;;;;;;;;;;5038537;28;20579;-60
2023/07/15 12:39:28;;;;;;;422.48;378.98;;;;;;;;;;5037898;28;20035;-60
2023/07/15 12:41:53;;;;;;;293.77;261.13;;;;;;;;;;5020595;28;20040;-59
2023/07/15 12:44:18;;;;;;;505.50;457.77;;;;;;;;;;5038783;28;20031;-60
2023/07/15 12:46:44;;;;;;;618.73;501.23;;;;;;;;;;5037001;28;20025;-59
2023/07/15 12:49:09;;;;;;;526.67;467.07;;;;;;;;;;5038553;28;20048;-59
2023/07/15 12:51:34;;;;;;;904.80;562.80;;;;;;;;;;5034863;28;20473;-59
2023/07/15 12:53:59;;;;;;;778.47;543.63;;;;;;;;;;5037141;28;20483;-59
2023/07/15 12:56:25;;;;;;;472.13;427.63;;;;;;;;;;5035644;28;20449;-60
2023/07/15 12:58:50;;;;;;;614.60;470.70;;;;;;;;;;5017952;28;20025;-59
2023/07/15 13:01:15;;;;;;;516.87;461.67;;;;;;;;;;5036839;28;20143;-58
2023/07/15 13:03:40;;;;;;;453.20;407.23;;;;;;;;;;5036823;28;20482;-59
2023/07/15 13:06:06;;;;;;;637.70;434.63;;;;;;;;;;5035914;28;20464;-59
2023/07/15 13:08:31;;;;;;;420.77;378.73;;;;;;;;;;5035756;28;20730;-59
2023/07/15 13:10:56;;;;;;;667.27;533.27;;;;;;;;;;5036821;28;20048;-59
2023/07/15 13:13:21;;;;;;;466.40;422.80;;;;;;;;;;5037799;28;20079;-58
2023/07/15 13:15:46;;;;;;;534.17;392.33;;;;;;;;;;5036266;28;20036;-59
2023/07/15 13:18:12;;;;;;;319.40;285.10;;;;;;;;;;5036896;28;20232;-59
2023/07/15 13:20:38;;;;;;;417.80;373.55;;;;;;;;;;5033603;28;20275;-59
2023/07/15 13:23:03;;;;;;;418.70;377.90;;;;;;;;;;5036752;28;20037;-59
2023/07/15 13:25:28;;;;;;;462.43;414.43;;;;;;;;;;5035809;28;20038;-59
2023/07/15 13:27:54;;;;;;;523.20;475.67;;;;;;;;;;5034893;28;20421;-60
2023/07/15 13:30:19;;;;;;;441.95;394.20;;;;;;;;;;5035901;28;20098;-60
2023/07/15 13:32:44;;;;;;;384.80;345.60;;;;;;;;;;5035365;28;20108;-60
2023/07/15 13:35:10;;;;;;;595.07;508.37;;;;;;;;;;5035024;28;20355;-59
2023/07/15 13:37:35;;;;;;;362.73;325.60;;;;;;;;;;5035677;28;20025;-59
2023/07/15 13:40:00;;;;;;;566.67;509.57;;;;;;;;;;5037291;28;21025;-60
2023/07/15 13:42:26;;;;;;;375.10;339.27;;;;;;;;;;5017305;28;20636;-60
2023/07/15 13:44:51;;;;;;;464.60;419.20;;;;;;;;;;5036384;28;20259;-59
2023/07/15 13:47:17;;;;;;;849.53;469.80;;;;;;;;;;5037242;28;20029;-57
2023/07/15 13:49:42;;;;;;;629.83;488.55;;;;;;;;;;5036283;28;20056;-58